Onaga, Kansas
Current Conditions -  °F | °C
As of 10:15 PM on Friday 26 Dec 2014 (Local Time) from KMYZ Reporting Station
Light Snow Light Snow  
Wind Chill: 26°   Ceiling: 600
Heat Index: 32°   Visibility: 7mi
Dew Point: 32°   Wind: 6mph
Humidity: 100%   Direction: 310°NW
Pressure: 30.04"   Gusts: NA
Location:  39.49°N, 96.17°W
Report Text: KMYZ 270415Z AUTO 31005KT 7SM -SN OVC006 00/00 A3004 RMK AO2
Loading
Personal Weather Stations






























Interactive Weather Map New forecast layout! Learn more

10-Day Weather Forecast

Advertisements
Track Severe Weather on mobile